Time;durP1;ratioP1;P1;durP2;ratioP2;P2;SDS_P1;SDS_P2;PMS_P1;PMS_P2;Temp;Humidity;BMP_temperature;BMP_pressure;BME280_temperature;BME280_humidity;BME280_pressure;Samples;Min_cycle;Max_cycle;Signal;HPM_P1;HPM_P2
2023/10/27 00:01:52;;;;;;;11.33;5.87;;;11.60;94.70;;;;;;791091;178;26982;-88
2023/10/27 00:04:19;;;;;;;11.60;6.33;;;11.60;94.80;;;;;;794274;178;26423;-90
2023/10/27 00:06:45;;;;;;;12.60;6.93;;;11.60;94.80;;;;;;804669;178;26937;-90
2023/10/27 00:09:12;;;;;;;12.07;5.37;;;11.60;94.70;;;;;;804654;179;26376;-90
2023/10/27 00:11:41;;;;;;;11.33;5.30;;;11.50;94.60;;;;;;804661;179;26895;-89
2023/10/27 00:14:08;;;;;;;12.10;5.73;;;11.50;94.40;;;;;;802854;176;26386;-90
2023/10/27 00:16:35;;;;;;;15.17;6.23;;;11.50;94.50;;;;;;800605;177;26471;-89
2023/10/27 00:19:01;;;;;;;17.33;6.57;;;11.50;94.80;;;;;;792619;181;26433;-90
2023/10/27 00:21:28;;;;;;;11.47;5.80;;;11.40;94.70;;;;;;792829;178;27031;-89
2023/10/27 00:23:54;;;;;;;15.63;5.80;;;11.40;94.70;;;;;;800278;178;26369;-90
2023/10/27 00:26:21;;;;;;;16.80;6.33;;;11.30;94.60;;;;;;794643;178;26458;-89
2023/10/27 00:28:48;;;;;;;14.37;5.80;;;11.30;94.70;;;;;;795857;178;26450;-90
2023/10/27 00:31:14;;;;;;;16.50;5.60;;;11.30;94.70;;;;;;798728;178;26361;-89
2023/10/27 00:33:41;;;;;;;15.20;4.80;;;11.30;94.70;;;;;;797996;178;26526;-87
2023/10/27 00:36:07;;;;;;;15.57;4.60;;;11.30;94.40;;;;;;792084;179;26488;-89
2023/10/27 00:38:34;;;;;;;13.63;5.10;;;11.30;94.10;;;;;;787993;182;26444;-89
2023/10/27 00:41:00;;;;;;;17.37;4.90;;;11.30;94.30;;;;;;787877;182;26479;-89
2023/10/27 00:43:27;;;;;;;15.77;4.67;;;11.30;93.90;;;;;;795637;179;26448;-88
2023/10/27 00:45:54;;;;;;;16.97;4.63;;;11.30;93.60;;;;;;798691;178;26505;-89
2023/10/27 00:48:20;;;;;;;13.90;4.50;;;11.30;93.80;;;;;;798273;178;26469;-88
2023/10/27 00:50:47;;;;;;;17.63;4.77;;;11.30;93.70;;;;;;794673;178;26974;-88
2023/10/27 00:53:13;;;;;;;20.10;5.80;;;11.30;93.70;;;;;;791565;178;26434;-89
2023/10/27 00:55:40;;;;;;;11.33;4.83;;;11.30;93.80;;;;;;791988;178;26942;-87
2023/10/27 00:58:07;;;;;;;14.53;5.27;;;11.30;93.90;;;;;;801894;179;26400;-90
2023/10/27 01:00:33;;;;;;;16.97;5.07;;;11.30;94.10;;;;;;798181;178;26912;-88
2023/10/27 01:03:00;;;;;;;17.97;5.00;;;11.30;94.30;;;;;;801806;179;26355;-87
2023/10/27 01:05:26;;;;;;;18.47;5.10;;;11.30;94.30;;;;;;805065;178;26939;-87
2023/10/27 01:07:53;;;;;;;12.87;4.73;;;11.30;94.20;;;;;;797120;179;26431;-90
2023/10/27 01:10:20;;;;;;;19.17;5.43;;;11.30;93.90;;;;;;787847;178;26993;-88
2023/10/27 01:12:49;;;;;;;17.27;5.00;;;11.40;94.10;;;;;;803949;178;26438;-87
2023/10/27 01:15:13;;;;;;;14.50;4.50;;;11.40;93.60;;;;;;787596;182;27074;-87
2023/10/27 01:17:40;;;;;;;11.63;4.63;;;11.40;93.70;;;;;;788377;178;26452;-87
2023/10/27 01:20:07;;;;;;;14.10;5.00;;;11.50;93.80;;;;;;787640;182;27033;-88
2023/10/27 01:22:34;;;;;;;14.23;5.03;;;11.50;93.40;;;;;;787684;182;26491;-88
2023/10/27 01:25:01;;;;;;;13.47;5.00;;;11.50;93.50;;;;;;795157;178;26429;-88
2023/10/27 01:27:27;;;;;;;18.53;5.73;;;11.50;93.70;;;;;;798869;177;26447;-88
2023/10/27 01:29:54;;;;;;;13.73;5.10;;;11.50;94.10;;;;;;792412;181;26508;-87
2023/10/27 01:32:22;;;;;;;11.67;4.67;;;11.50;94.00;;;;;;792673;175;26568;-90
2023/10/27 01:34:49;;;;;;;16.80;5.37;;;11.50;93.80;;;;;;801648;178;26345;-90
2023/10/27 01:37:16;;;;;;;15.30;5.60;;;11.50;93.60;;;;;;808384;176;26400;-90
2023/10/27 01:39:48;;;;;;;13.63;4.97;;;11.50;93.70;;;;;;805721;178;26355;-89
2023/10/27 01:42:15;;;;;;;14.40;5.47;;;11.50;93.90;;;;;;804546;176;26373;-87
2023/10/27 01:44:42;;;;;;;15.90;5.77;;;11.50;94.00;;;;;;796811;179;26386;-88
2023/10/27 01:47:15;;;;;;;9.70;4.60;;;11.50;93.80;;;;;;804420;177;26381;-87
2023/10/27 01:49:41;;;;;;;13.23;4.37;;;11.50;93.50;;;;;;800837;178;26435;-87
2023/10/27 01:52:08;;;;;;;14.57;5.10;;;11.50;93.50;;;;;;796098;178;26360;-88
2023/10/27 01:54:35;;;;;;;13.00;4.87;;;11.50;93.50;;;;;;793993;178;26481;-88
2023/10/27 01:57:01;;;;;;;12.03;4.73;;;11.50;93.70;;;;;;801190;177;26451;-87
2023/10/27 01:59:29;;;;;;;7.93;4.30;;;11.50;93.50;;;;;;798490;180;26407;-88
2023/10/27 02:02:13;;;;;;;16.07;4.90;;;11.50;93.80;;;;;;801516;179;26937;-90
2023/10/27 02:04:37;;;;;;;9.60;4.70;;;11.50;93.50;;;;;;802155;179;26360;-90
2023/10/27 02:07:03;;;;;;;13.97;5.07;;;11.40;93.50;;;;;;802223;179;26429;-88
2023/10/27 02:09:30;;;;;;;17.13;5.50;;;11.40;93.40;;;;;;802518;178;26435;-87
2023/10/27 02:12:10;;;;;;;11.07;4.57;;;11.50;93.80;;;;;;789119;182;26422;-88
2023/10/27 02:14:35;;;;;;;9.07;4.97;;;11.40;93.60;;;;;;790622;178;26490;-89
2023/10/27 02:17:02;;;;;;;7.90;4.13;;;11.50;93.50;;;;;;790764;182;26458;-87
2023/10/27 02:19:28;;;;;;;14.33;5.00;;;11.40;93.60;;;;;;795875;179;26370;-88
2023/10/27 02:21:55;;;;;;;11.13;5.00;;;11.40;93.70;;;;;;801372;178;26355;-88
2023/10/27 02:24:22;;;;;;;11.83;5.20;;;11.40;93.90;;;;;;804221;178;26364;-89
2023/10/27 02:26:48;;;;;;;14.63;5.30;;;11.40;93.60;;;;;;807762;178;26371;-89
2023/10/27 02:29:17;;;;;;;16.33;5.23;;;11.30;93.50;;;;;;798998;178;26397;-89
2023/10/27 02:31:52;;;;;;;15.13;5.40;;;11.30;93.70;;;;;;797593;178;27029;-89
2023/10/27 02:34:19;;;;;;;13.00;5.30;;;11.30;93.90;;;;;;792318;178;26445;-89
2023/10/27 02:36:53;;;;;;;15.90;6.10;;;11.30;94.00;;;;;;793664;176;26393;-89
2023/10/27 02:39:36;;;;;;;13.13;5.73;;;11.30;93.90;;;;;;807939;177;26407;-89
2023/10/27 02:42:22;;;;;;;13.13;5.03;;;11.30;93.80;;;;;;806290;177;26372;-89
2023/10/27 02:44:48;;;;;;;11.50;4.87;;;11.30;93.90;;;;;;807674;177;26356;-89
2023/10/27 02:47:15;;;;;;;12.53;5.13;;;11.30;93.80;;;;;;806733;178;26939;-87
2023/10/27 02:49:42;;;;;;;10.33;4.90;;;11.30;93.90;;;;;;798486;178;26463;-90
2023/10/27 02:52:09;;;;;;;10.10;4.63;;;11.30;93.80;;;;;;790412;178;26434;-89
2023/10/27 02:54:48;;;;;;;18.07;5.27;;;11.30;93.80;;;;;;791150;181;26427;-89
2023/10/27 02:57:15;;;;;;;13.37;4.50;;;11.30;93.80;;;;;;787675;181;26497;-88
2023/10/27 02:59:42;;;;;;;14.90;5.07;;;11.30;93.80;;;;;;788121;179;26439;-89
2023/10/27 03:02:08;;;;;;;13.13;5.17;;;11.30;93.80;;;;;;787567;182;26492;-90
2023/10/27 03:04:35;;;;;;;11.53;5.00;;;11.30;93.90;;;;;;787529;181;26452;-90
2023/10/27 03:07:01;;;;;;;13.90;5.83;;;11.20;93.80;;;;;;787520;181;26531;-88
2023/10/27 03:09:28;;;;;;;14.07;5.10;;;11.30;93.90;;;;;;787746;179;26452;-88
2023/10/27 03:11:55;;;;;;;15.90;4.97;;;11.30;94.00;;;;;;787700;182;27044;-89
2023/10/27 03:14:21;;;;;;;11.13;5.40;;;11.20;94.10;;;;;;787466;181;26439;-89
2023/10/27 03:16:54;;;;;;;12.27;5.00;;;11.20;93.80;;;;;;794655;179;26452;-89
2023/10/27 03:19:21;;;;;;;16.17;5.63;;;11.30;94.00;;;;;;802392;177;26405;-91
2023/10/27 03:21:48;;;;;;;13.23;5.10;;;11.30;93.90;;;;;;802502;179;26365;-89
2023/10/27 03:24:14;;;;;;;11.70;4.97;;;11.30;93.60;;;;;;802231;179;26400;-88
2023/10/27 03:26:41;;;;;;;11.73;4.30;;;11.30;93.90;;;;;;790416;179;26994;-88
2023/10/27 03:29:07;;;;;;;12.57;5.30;;;11.30;93.90;;;;;;786936;181;26435;-88
2023/10/27 03:31:40;;;;;;;15.77;5.50;;;11.30;94.30;;;;;;787115;182;27022;-89
2023/10/27 03:34:07;;;;;;;11.07;4.80;;;11.30;94.20;;;;;;793198;179;26944;-88
2023/10/27 03:36:33;;;;;;;18.53;4.90;;;11.30;94.40;;;;;;799268;179;26376;-89
2023/10/27 03:39:15;;;;;;;13.13;5.40;;;11.30;94.30;;;;;;795939;179;26392;-90
2023/10/27 03:41:53;;;;;;;14.90;5.40;;;11.20;94.30;;;;;;797825;178;26348;-90
2023/10/27 03:44:20;;;;;;;22.27;5.53;;;11.20;94.70;;;;;;799247;178;27083;-90
2023/10/27 04:28:49;;;;;;;13.40;5.57;;;10.90;95.30;;;;;;741988;175;26501;-91
2023/10/27 05:07:24;;;;;;;16.60;7.63;;;11.00;96.00;;;;;;725023;177;26477;-88
2023/10/27 05:09:51;;;;;;;18.10;6.83;;;11.00;96.00;;;;;;775987;178;26492;-89
2023/10/27 05:12:19;;;;;;;18.47;7.73;;;11.00;95.90;;;;;;771284;185;26470;-89
2023/10/27 05:14:46;;;;;;;20.10;7.43;;;11.00;96.30;;;;;;782753;182;27015;-89
2023/10/27 05:17:13;;;;;;;21.97;8.60;;;11.00;96.30;;;;;;782767;182;26452;-89
2023/10/27 05:19:40;;;;;;;23.73;9.23;;;11.00;96.40;;;;;;780848;181;26462;-90
2023/10/27 05:22:10;;;;;;;14.77;8.30;;;11.00;96.60;;;;;;775196;180;26458;-89
2023/10/27 05:24:45;;;;;;;25.40;10.10;;;11.00;96.50;;;;;;775852;184;26443;-89
2023/10/27 05:27:18;;;;;;;19.13;9.60;;;11.00;96.70;;;;;;776464;182;26447;-87
2023/10/27 05:29:53;;;;;;;19.37;8.70;;;11.00;96.90;;;;;;775076;181;26464;-87
2023/10/27 05:32:33;;;;;;;;;;;;;;;;;;;;;
2023/10/27 05:35:10;;;;;;;23.40;9.50;;;11.00;96.90;;;;;;772612;184;26446;-87
2023/10/27 05:40:31;;;;;;;25.80;10.13;;;11.00;97.20;;;;;;775011;182;26475;-88
2023/10/27 05:42:58;;;;;;;23.23;9.90;;;11.00;97.20;;;;;;774558;184;26429;-88
2023/10/27 05:45:33;;;;;;;29.27;11.10;;;11.10;97.30;;;;;;776386;184;27001;-88
2023/10/27 05:48:06;;;;;;;22.40;10.10;;;11.00;97.20;;;;;;776610;184;26474;-88
2023/10/27 05:50:44;;;;;;;25.33;10.63;;;11.00;97.30;;;;;;776425;182;26499;-89
2023/10/27 05:53:15;;;;;;;21.93;10.03;;;11.00;97.40;;;;;;774944;184;27072;-88
2023/10/27 05:56:06;;;;;;;;;;;;;;;;;;;;;
2023/10/27 06:15:07;;;;;;;25.97;11.73;;;11.10;97.80;;;;;;779660;183;26481;-91
2023/10/27 06:17:33;;;;;;;30.63;11.77;;;11.10;97.90;;;;;;778686;184;26453;-91
2023/10/27 06:22:35;;;;;;;31.23;12.80;;;11.10;97.90;;;;;;757880;187;26509;-92
2023/10/27 06:25:09;;;;;;;25.33;12.57;;;11.10;97.90;;;;;;766640;187;26511;-91
2023/10/27 06:27:37;;;;;;;22.53;11.43;;;11.10;97.90;;;;;;766542;187;27034;-91
2023/10/27 06:30:20;;;;;;;28.13;11.83;;;11.10;98.00;;;;;;766163;185;26484;-91
2023/10/27 06:35:34;;;;;;;26.17;11.87;;;11.20;98.10;;;;;;689669;184;26586;-88
2023/10/27 06:38:07;;;;;;;29.60;11.43;;;11.20;98.10;;;;;;744177;190;27064;-91
2023/10/27 06:43:40;;;;;;;23.63;10.33;;;11.20;98.10;;;;;;758146;188;26594;-88
2023/10/27 06:46:50;;;;;;;23.43;11.20;;;11.10;98.10;;;;;;758946;188;26499;-87
2023/10/27 06:52:02;;;;;;;30.70;11.43;;;11.20;98.30;;;;;;760550;187;26474;-89
2023/10/27 06:54:41;;;;;;;25.73;11.63;;;11.20;98.30;;;;;;789776;178;26517;-89
2023/10/27 06:57:23;;;;;;;20.53;8.70;;;11.20;98.30;;;;;;795650;180;26457;-89
2023/10/27 07:00:01;;;;;;;26.07;11.10;;;11.20;98.30;;;;;;794363;179;26451;-88
2023/10/27 07:05:20;;;;;;;18.93;9.67;;;11.30;99.10;;;;;;734883;177;27071;-88
2023/10/27 07:07:57;;;;;;;20.30;9.27;;;11.40;99.30;;;;;;770254;184;26995;-90
2023/10/27 07:10:25;;;;;;;19.53;8.37;;;11.30;99.10;;;;;;787970;182;26465;-87
2023/10/27 07:12:53;;;;;;;19.13;9.10;;;11.40;99.20;;;;;;779510;179;26472;-86
2023/10/27 07:15:54;;;;;;;;;;;;;;;;;;;;;
2023/10/27 07:18:13;;;;;;;20.73;9.63;;;11.40;99.20;;;;;;750444;189;26548;-87
2023/10/27 07:20:49;;;;;;;20.00;8.50;;;11.40;99.20;;;;;;760061;189;26587;-88
2023/10/27 07:23:22;;;;;;;16.50;8.33;;;11.50;99.30;;;;;;770201;178;26530;-90
2023/10/27 07:25:48;;;;;;;19.87;9.17;;;11.50;99.20;;;;;;780339;183;26503;-89
2023/10/27 07:28:18;;;;;;;18.37;9.23;;;11.50;99.20;;;;;;774323;185;27103;-87
2023/10/27 07:31:04;;;;;;;20.90;9.50;;;11.50;99.20;;;;;;763092;184;26522;-87
2023/10/27 11:07:24;;;;;;;;;;;;;;;;;;;;;
2023/10/27 11:10:42;;;;;;;16.30;10.00;;;14.20;92.70;;;;;;805549;176;26463;-92
2023/10/27 11:52:00;;;;;;;22.27;10.40;;;13.90;92.80;;;;;;780554;183;26518;-88
2023/10/27 11:54:40;;;;;;;55.37;27.73;;;13.60;92.80;;;;;;777585;183;26484;-87
2023/10/27 11:57:12;;;;;;;15.83;8.57;;;13.50;93.30;;;;;;802412;173;27005;-89
2023/10/27 11:59:39;;;;;;;50.87;29.63;;;13.40;93.30;;;;;;807996;176;26442;-88
2023/10/27 12:02:15;;;;;;;112.53;52.30;;;13.30;94.00;;;;;;808545;177;26461;-90
2023/10/27 12:05:01;;;;;;;48.53;25.07;;;13.30;94.30;;;;;;812418;176;26450;-90
2023/10/27 12:10:21;;;;;;;24.83;11.80;;;13.20;94.10;;;;;;782494;177;26515;-89
2023/10/27 12:12:48;;;;;;;29.87;13.03;;;13.10;94.30;;;;;;776595;183;26500;-89
2023/10/27 12:15:31;;;;;;;22.00;10.00;;;13.00;94.80;;;;;;776868;183;26478;-91
2023/10/27 12:18:16;;;;;;;39.30;22.23;;;13.00;95.00;;;;;;776147;181;26498;-89
2023/10/27 12:23:49;;;;;;;29.33;16.40;;;13.00;95.70;;;;;;781975;184;26473;-89
2023/10/27 12:26:27;;;;;;;47.37;23.83;;;13.00;95.50;;;;;;779071;183;27029;-89
2023/10/27 12:39:57;;;;;;;19.03;10.80;;;12.90;96.00;;;;;;738717;176;26476;-91
2023/10/27 12:42:28;;;;;;;9.23;3.97;;;12.90;95.90;;;;;;797026;180;27034;-90
2023/10/27 12:45:02;;;;;;;26.57;13.87;;;12.80;95.30;;;;;;792001;175;26499;-90
2023/10/27 12:47:38;;;;;;;32.67;19.03;;;12.80;94.90;;;;;;793073;180;27634;-90
2023/10/27 12:50:19;;;;;;;13.00;6.20;;;12.80;95.50;;;;;;794959;180;26537;-89
2023/10/27 12:52:47;;;;;;;23.97;9.10;;;12.90;95.60;;;;;;799687;177;26420;-91
2023/10/27 12:55:13;;;;;;;18.30;10.27;;;13.20;95.50;;;;;;804010;178;26369;-88
2023/10/27 12:57:49;;;;;;;39.40;20.90;;;13.30;94.60;;;;;;803072;176;26372;-89
2023/10/27 13:00:17;;;;;;;42.30;25.53;;;13.30;94.10;;;;;;803241;179;26389;-89
2023/10/27 13:03:04;;;;;;;23.60;13.20;;;13.20;94.40;;;;;;803226;174;26394;-88
2023/10/27 13:05:49;;;;;;;9.07;4.53;;;13.10;94.60;;;;;;805722;177;26985;-91
2023/10/27 13:16:51;;;;;;;105.87;56.07;;;13.10;95.30;;;;;;794409;177;26455;-90
2023/10/27 13:19:42;;;;;;;81.13;45.60;;;13.20;95.10;;;;;;794640;177;26516;-89
2023/10/27 13:25:19;;;;;;;14.60;8.90;;;13.10;94.80;;;;;;793248;181;26525;-91
2023/10/27 13:27:57;;;;;;;9.77;5.03;;;13.10;94.50;;;;;;806789;176;26455;-90
2023/10/27 13:33:49;;;;;;;;;;;;;;;;;;;;;
2023/10/27 13:44:41;;;;;;;55.67;34.03;;;13.10;93.70;;;;;;732190;177;26504;-91
2023/10/27 14:00:56;;;;;;;144.40;74.40;;;13.10;94.80;;;;;;734186;178;27025;-88
2023/10/27 14:03:48;;;;;;;196.77;103.77;;;13.00;94.40;;;;;;762194;186;27053;-88
2023/10/27 14:06:32;;;;;;;55.63;30.40;;;13.10;94.40;;;;;;764687;187;28173;-91
2023/10/27 14:09:08;;;;;;;38.97;20.47;;;13.20;94.40;;;;;;758789;188;26527;-91
2023/10/27 14:11:38;;;;;;;31.20;17.53;;;13.30;94.80;;;;;;769548;184;28153;-90
2023/10/27 14:14:14;;;;;;;29.30;17.87;;;13.50;94.40;;;;;;780072;181;26481;-91
2023/10/27 14:25:28;;;;;;;73.03;42.83;;;14.00;92.80;;;;;;798109;176;26485;-92
2023/10/27 14:28:12;;;;;;;38.13;24.37;;;14.00;91.70;;;;;;792401;179;26423;-89
2023/10/27 14:31:06;;;;;;;32.93;19.73;;;14.00;92.10;;;;;;790166;176;26995;-88
2023/10/27 14:34:06;;;;;;;43.77;26.90;;;14.00;92.90;;;;;;796898;178;26529;-87
2023/10/27 14:36:24;;;;;;;21.33;12.40;;;13.80;91.50;;;;;;795292;177;26436;-89
2023/10/27 14:44:41;;;;;;;28.70;15.37;;;13.70;92.00;;;;;;810445;177;26418;-88
2023/10/27 15:04:16;;;;;;;44.83;25.03;;;13.70;91.70;;;;;;714166;185;26517;-88
2023/10/27 15:20:37;;;;;;;63.27;38.73;;;13.90;91.30;;;;;;741638;175;26480;-87
2023/10/27 15:23:03;;;;;;;74.50;43.77;;;13.90;91.00;;;;;;794405;178;28104;-87
2023/10/27 15:25:33;;;;;;;68.83;40.20;;;14.00;90.30;;;;;;790107;178;26489;-87
2023/10/27 15:27:59;;;;;;;77.37;45.80;;;14.10;90.00;;;;;;788876;180;26469;-88
2023/10/27 15:30:27;;;;;;;113.20;58.83;;;14.10;90.20;;;;;;777128;182;26502;-87
2023/10/27 15:32:54;;;;;;;81.37;44.77;;;14.40;90.00;;;;;;790110;177;26480;-88
2023/10/27 15:38:03;;;;;;;9.97;6.87;;;15.90;83.00;;;;;;796171;180;26490;-89
2023/10/27 15:43:32;;;;;;;45.57;27.30;;;16.00;80.00;;;;;;792682;181;26426;-92
2023/10/27 16:27:51;;;;;;;110.43;63.03;;;12.70;92.60;;;;;;758437;187;26548;-92
2023/10/27 16:33:03;;;;;;;175.27;96.77;;;12.50;92.70;;;;;;777546;178;26514;-87
2023/10/27 16:35:30;;;;;;;112.20;58.23;;;12.50;92.40;;;;;;769349;185;27122;-85
2023/10/27 16:37:58;;;;;;;189.33;100.17;;;12.50;92.00;;;;;;767388;185;26659;-85
2023/10/27 16:40:27;;;;;;;75.13;42.07;;;12.50;92.10;;;;;;761417;187;26546;-85
2023/10/27 16:42:50;;;;;;;98.37;53.77;;;12.50;91.70;;;;;;749568;190;26540;-86
2023/10/27 16:45:16;;;;;;;148.23;81.87;;;12.50;91.60;;;;;;750160;190;26622;-85
2023/10/27 16:47:43;;;;;;;185.13;102.43;;;12.50;92.20;;;;;;750949;190;27094;-85
2023/10/27 16:50:10;;;;;;;216.53;107.90;;;12.40;91.90;;;;;;758312;187;26507;-85
2023/10/27 16:52:38;;;;;;;151.93;88.10;;;12.40;91.90;;;;;;754513;187;26506;-87
2023/10/27 16:55:03;;;;;;;40.77;23.27;;;12.40;92.10;;;;;;757491;187;26536;-85
2023/10/27 16:57:33;;;;;;;151.77;85.63;;;12.30;92.40;;;;;;761070;186;27081;-85
2023/10/27 17:00:00;;;;;;;97.47;51.83;;;12.20;92.30;;;;;;776994;183;27056;-85
2023/10/27 17:02:26;;;;;;;312.67;180.97;;;12.10;92.90;;;;;;775200;183;26511;-85
2023/10/27 17:04:52;;;;;;;404.83;219.13;;;12.10;92.60;;;;;;775591;182;27027;-86
2023/10/27 17:07:19;;;;;;;360.67;207.90;;;12.00;92.60;;;;;;761396;188;26591;-86
2023/10/27 17:09:50;;;;;;;91.80;53.13;;;11.90;92.80;;;;;;761312;187;26512;-86
2023/10/27 17:12:18;;;;;;;57.33;32.93;;;11.90;92.90;;;;;;754680;190;26538;-86
2023/10/27 17:14:47;;;;;;;25.33;12.47;;;11.90;93.10;;;;;;754546;190;28114;-86
2023/10/27 17:17:14;;;;;;;75.77;39.30;;;11.80;93.30;;;;;;767903;187;26494;-84
2023/10/27 17:19:40;;;;;;;196.47;101.93;;;11.80;93.30;;;;;;752145;188;27085;-86
2023/10/27 17:22:07;;;;;;;168.77;82.90;;;11.80;93.20;;;;;;772876;182;26506;-86
2023/10/27 17:24:33;;;;;;;361.80;188.33;;;11.90;92.70;;;;;;772826;181;27015;-85
2023/10/27 17:27:00;;;;;;;33.20;16.13;;;11.80;93.10;;;;;;761058;188;26497;-87
2023/10/27 17:29:30;;;;;;;182.10;85.00;;;11.80;93.10;;;;;;781445;178;26494;-87
2023/10/27 17:31:57;;;;;;;158.13;86.20;;;11.80;93.10;;;;;;739760;195;26512;-88
2023/10/27 17:34:23;;;;;;;31.97;19.03;;;11.70;93.10;;;;;;767948;187;26480;-86
2023/10/27 17:36:51;;;;;;;126.43;61.63;;;11.70;93.10;;;;;;768667;184;26474;-85
2023/10/27 17:39:17;;;;;;;89.30;44.00;;;11.60;92.80;;;;;;750302;188;26502;-87
2023/10/27 17:41:44;;;;;;;92.93;47.67;;;11.60;93.30;;;;;;770706;184;27044;-86
2023/10/27 17:44:12;;;;;;;11.40;5.40;;;11.50;93.30;;;;;;748636;189;26549;-85
2023/10/27 17:46:39;;;;;;;19.80;10.47;;;11.50;93.30;;;;;;769766;184;26500;-85
2023/10/27 17:49:05;;;;;;;28.73;15.37;;;11.50;93.60;;;;;;744545;192;26542;-86
2023/10/27 17:51:32;;;;;;;16.97;8.80;;;11.50;93.80;;;;;;771241;184;26495;-86
2023/10/27 17:53:59;;;;;;;13.20;6.70;;;11.40;93.50;;;;;;759511;187;26534;-86
2023/10/27 17:56:26;;;;;;;15.13;8.43;;;11.40;93.90;;;;;;754898;187;26499;-86
2023/10/27 17:58:53;;;;;;;14.43;8.00;;;11.30;93.90;;;;;;759769;185;26505;-86
2023/10/27 18:01:18;;;;;;;16.63;7.53;;;11.30;94.10;;;;;;773366;183;26473;-85
2023/10/27 18:03:46;;;;;;;19.73;8.60;;;11.20;94.40;;;;;;754900;186;26519;-86
2023/10/27 18:06:12;;;;;;;19.07;7.97;;;11.20;94.40;;;;;;775370;184;27023;-86
2023/10/27 18:08:38;;;;;;;18.67;9.83;;;11.10;94.50;;;;;;761525;186;26522;-86
2023/10/27 18:11:31;;;;;;;16.17;7.47;;;11.10;94.40;;;;;;775273;183;27184;-86
2023/10/27 18:16:51;;;;;;;16.13;6.90;;;11.00;94.70;;;;;;772440;184;26496;-86
2023/10/27 18:19:35;;;;;;;12.20;6.93;;;11.00;94.80;;;;;;756492;187;26494;-86
2023/10/27 18:22:05;;;;;;;12.53;6.30;;;11.10;95.10;;;;;;771142;184;26523;-84
2023/10/27 18:24:33;;;;;;;15.43;6.13;;;11.10;95.30;;;;;;774216;182;26610;-86
2023/10/27 18:27:08;;;;;;;10.90;7.07;;;11.10;95.20;;;;;;773163;181;27062;-85
2023/10/27 18:29:34;;;;;;;13.77;8.93;;;11.10;95.20;;;;;;756516;188;26582;-85
2023/10/27 18:32:05;;;;;;;16.00;7.10;;;11.00;95.30;;;;;;776169;181;26640;-86
2023/10/27 18:34:31;;;;;;;11.10;6.43;;;10.90;95.20;;;;;;773054;184;26511;-86
2023/10/27 18:36:59;;;;;;;13.90;8.70;;;10.90;95.20;;;;;;775079;184;27122;-85
2023/10/27 18:39:33;;;;;;;15.97;7.97;;;10.90;95.30;;;;;;748921;187;27061;-87
2023/10/27 18:42:11;;;;;;;15.37;8.90;;;11.00;95.50;;;;;;750531;188;27094;-85
2023/10/27 18:44:46;;;;;;;15.97;8.00;;;10.90;95.40;;;;;;748789;191;26591;-87
2023/10/27 18:47:14;;;;;;;12.43;7.63;;;11.00;95.30;;;;;;767310;187;26553;-85
2023/10/27 18:49:44;;;;;;;15.27;9.30;;;11.10;95.30;;;;;;757292;186;26495;-86
2023/10/27 18:52:16;;;;;;;13.43;6.67;;;11.10;95.10;;;;;;773187;184;26492;-86
2023/10/27 18:54:45;;;;;;;9.63;6.00;;;11.10;94.80;;;;;;742886;190;26569;-86
2023/10/27 18:57:16;;;;;;;12.77;5.97;;;11.00;94.80;;;;;;768290;183;26513;-86
2023/10/27 18:59:50;;;;;;;13.50;6.67;;;10.90;94.90;;;;;;756831;188;26498;-86
2023/10/27 19:02:27;;;;;;;11.13;5.17;;;10.80;94.80;;;;;;747291;191;26602;-86
2023/10/27 19:07:35;;;;;;;9.00;5.60;;;10.80;94.90;;;;;;753905;187;26577;-86
2023/10/27 19:10:11;;;;;;;12.00;6.13;;;10.80;94.90;;;;;;742631;192;26564;-86
2023/10/27 19:15:31;;;;;;;15.50;7.57;;;10.70;94.90;;;;;;713061;177;27078;-86
2023/10/27 19:18:01;;;;;;;16.27;6.73;;;10.70;95.00;;;;;;763959;184;26525;-85
2023/10/27 19:20:38;;;;;;;10.37;4.67;;;10.80;95.00;;;;;;764179;186;26489;-85
2023/10/27 19:23:31;;;;;;;16.33;5.83;;;10.70;94.80;;;;;;763655;187;26501;-85
2023/10/27 20:07:30;;;;;;;12.13;5.73;;;10.80;94.30;;;;;;748705;175;26463;-84
2023/10/27 20:09:56;;;;;;;12.30;5.87;;;10.80;94.30;;;;;;803804;178;28070;-85
2023/10/27 20:12:27;;;;;;;13.07;6.67;;;10.70;94.20;;;;;;787107;180;26452;-87
2023/10/27 20:14:54;;;;;;;16.40;8.77;;;10.70;94.50;;;;;;790554;180;26454;-84
2023/10/27 20:17:23;;;;;;;14.07;8.83;;;10.60;94.50;;;;;;782464;181;27023;-84
2023/10/27 20:19:57;;;;;;;11.57;6.87;;;10.50;94.70;;;;;;798196;175;26443;-87
2023/10/27 20:22:28;;;;;;;14.67;6.90;;;10.40;94.70;;;;;;812069;173;26411;-88
2023/10/27 20:25:11;;;;;;;16.40;10.47;;;10.40;94.80;;;;;;816330;173;26382;-87
2023/10/27 20:27:47;;;;;;;16.63;9.00;;;10.50;95.50;;;;;;810239;175;26414;-87
2023/10/27 20:30:20;;;;;;;12.67;7.73;;;10.40;95.30;;;;;;822623;174;26476;-87
2023/10/27 20:32:54;;;;;;;14.83;7.10;;;10.40;95.30;;;;;;816802;174;26472;-87
2023/10/27 20:35:38;;;;;;;;;;;;;;;;;;;;;
2023/10/27 20:38:07;;;;;;;16.17;8.80;;;10.40;95.40;;;;;;811385;175;26480;-87
2023/10/27 20:40:40;;;;;;;19.17;9.93;;;10.30;95.50;;;;;;821968;174;26966;-87
2023/10/27 20:43:10;;;;;;;16.83;9.17;;;10.30;95.40;;;;;;811801;175;26600;-87
2023/10/27 20:45:43;;;;;;;15.10;9.10;;;10.30;95.60;;;;;;820691;175;26395;-87
2023/10/27 20:53:48;;;;;;;14.63;8.17;;;10.20;95.50;;;;;;723045;184;26494;-88
2023/10/27 21:07:53;;;;;;;20.60;9.77;;;10.30;95.50;;;;;;795340;176;26521;-86
2023/10/27 21:10:33;;;;;;;17.10;7.33;;;10.30;95.50;;;;;;803318;177;26440;-88
2023/10/27 21:13:07;;;;;;;14.70;9.17;;;10.30;95.70;;;;;;801851;177;26477;-86
2023/10/27 21:18:14;;;;;;;19.33;9.67;;;10.20;95.50;;;;;;711282;185;26547;-84
2023/10/27 21:20:40;;;;;;;12.57;7.27;;;10.20;95.90;;;;;;762534;186;28164;-85
2023/10/27 21:23:13;;;;;;;19.30;7.57;;;10.40;95.90;;;;;;764926;186;27075;-87
2023/10/27 21:26:02;;;;;;;13.10;8.33;;;10.50;95.90;;;;;;765137;183;26488;-85
2023/10/27 21:28:46;;;;;;;11.03;6.13;;;10.40;95.80;;;;;;746551;184;27051;-84
2023/10/27 21:31:24;;;;;;;12.63;7.77;;;10.60;95.40;;;;;;744332;188;26488;-85
2023/10/27 21:33:59;;;;;;;15.53;8.30;;;10.60;95.30;;;;;;752601;185;26487;-85
2023/10/27 21:36:28;;;;;;;8.87;6.07;;;10.60;95.30;;;;;;752479;181;27114;-86
2023/10/27 21:38:55;;;;;;;14.60;8.93;;;10.70;94.90;;;;;;753025;186;26620;-85
2023/10/27 21:41:23;;;;;;;15.50;7.73;;;10.60;95.10;;;;;;752826;186;26587;-88
2023/10/27 21:43:49;;;;;;;15.17;7.17;;;10.60;95.30;;;;;;756780;188;26549;-85
2023/10/27 21:46:20;;;;;;;14.53;6.87;;;10.60;95.10;;;;;;755282;187;26587;-87
2023/10/27 21:48:53;;;;;;;11.70;7.40;;;10.50;95.20;;;;;;752897;187;26582;-88
2023/10/27 21:51:28;;;;;;;17.83;8.60;;;10.50;95.40;;;;;;766715;178;26484;-87
2023/10/27 21:53:58;;;;;;;16.70;7.23;;;10.60;95.10;;;;;;790657;180;26542;-91
2023/10/27 21:56:27;;;;;;;12.93;7.57;;;10.50;95.10;;;;;;792956;180;26507;-87
2023/10/27 21:59:18;;;;;;;;;;;;;;;;;;;;;
2023/10/27 22:01:47;;;;;;;14.67;7.30;;;10.40;95.20;;;;;;777688;178;26612;-88
2023/10/27 22:04:14;;;;;;;16.83;7.30;;;10.40;95.30;;;;;;762230;187;26501;-89
2023/10/27 22:06:53;;;;;;;16.43;7.93;;;10.30;95.50;;;;;;761237;187;26522;-87
2023/10/27 22:09:28;;;;;;;15.83;7.23;;;10.30;95.50;;;;;;760407;188;26579;-86
2023/10/27 22:11:54;;;;;;;12.73;7.00;;;10.20;95.50;;;;;;753337;187;26525;-89
2023/10/27 22:14:35;;;;;;;10.63;6.27;;;10.30;95.80;;;;;;748292;191;27125;-90
2023/10/27 22:17:03;;;;;;;12.70;5.97;;;10.30;95.60;;;;;;749258;191;26535;-87
2023/10/27 22:19:42;;;;;;;17.97;6.20;;;10.20;95.50;;;;;;748202;191;26547;-84
2023/10/27 22:22:12;;;;;;;10.63;6.23;;;10.30;95.50;;;;;;748296;187;26538;-86
2023/10/27 22:24:43;;;;;;;15.77;7.33;;;10.30;95.60;;;;;;760102;184;26569;-85
2023/10/27 22:27:10;;;;;;;13.20;6.20;;;10.30;95.70;;;;;;759198;186;26586;-84
2023/10/27 22:29:45;;;;;;;10.27;5.87;;;10.40;95.60;;;;;;760382;188;26568;-85
2023/10/27 22:34:59;;;;;;;15.67;6.73;;;10.40;95.90;;;;;;713377;183;27051;-83
2023/10/27 22:37:27;;;;;;;12.13;7.47;;;10.30;95.70;;;;;;768013;183;26491;-84
2023/10/27 22:39:53;;;;;;;16.37;6.80;;;10.30;95.70;;;;;;767687;181;26564;-83
2023/10/27 22:42:21;;;;;;;16.60;6.70;;;10.40;95.70;;;;;;771692;183;27203;-85
2023/10/27 22:44:49;;;;;;;11.13;5.53;;;10.40;95.70;;;;;;773489;180;26585;-86
2023/10/27 22:47:23;;;;;;;10.33;5.90;;;10.40;95.70;;;;;;778051;184;27022;-82